This is the latest recevied weather packets stored in our database for station/object EFHKFMI. If no packets are shown the sender has not sent any weather packets the latest 1 day(s).
| Time | Temp. | Humidity | Pressure | Rain* | Wind** | Luminosity | Snow |
|---|---|---|---|---|---|---|---|
| 1778010437 | 5.56° C | 51% | 1007.1 hPa | 0 mm | 4.92 m/s, 276° | - | - |
| 1778009237 | 5.56° C | 49% | 1006.9 hPa | 0 mm | 5.81 m/s, 275° | - | - |
| 1778008037 | 6.67° C | 46% | 1006.7 hPa | 0 mm | 4.92 m/s, 267° | - | - |
| 1778006837 | 6.67° C | 44% | 1006.5 hPa | 0 mm | 4.47 m/s, 262° | - | - |
| 1778005637 | 7.22° C | 42% | 1006.2 hPa | 0 mm | 4.92 m/s, 266° | - | - |
| 1778004436 | 7.78° C | 41% | 1006 hPa | 0 mm | 5.36 m/s, 260° | - | - |
| 1778003236 | 8.33° C | 39% | 1005.8 hPa | 0 mm | 5.36 m/s, 265° | - | - |
| 1778002036 | 8.33° C | 38% | 1005.6 hPa | 0 mm | 6.71 m/s, 274° | - | - |
| 1778000836 | 8.89° C | 39% | 1005.5 hPa | 0 mm | 6.26 m/s, 259° | - | - |
| 1777999636 | 9.44° C | 35% | 1005.4 hPa | 0 mm | 7.6 m/s, 275° | - | - |
| 1777998436 | 10° C | 34% | 1005.3 hPa | 0 mm | 7.15 m/s, 279° | - | - |
| 1777997236 | 10.56° C | 31% | 1005.2 hPa | 0 mm | 6.71 m/s, 260° | - | - |
| 1777996036 | 10.56° C | 31% | 1005 hPa | 0 mm | 7.15 m/s, 276° | - | - |
| 1777994836 | 11.11° C | 30% | 1004.9 hPa | 0 mm | 6.71 m/s, 270° | - | - |
| 1777993636 | 11.11° C | 29% | 1004.7 hPa | 0 mm | 6.71 m/s, 281° | - | - |
| 1777992436 | 11.67° C | 31% | 1004.7 hPa | 0 mm | 6.71 m/s, 264° | - | - |
| 1777991236 | 10.56° C | 37% | 1004.7 hPa | 0 mm | 5.81 m/s, 285° | - | - |
| 1777990036 | 11.11° C | 33% | 1004.7 hPa | 0 mm | 6.26 m/s, 258° | - | - |
| 1777988836 | 11.11° C | 32% | 1004.6 hPa | 0 mm | 5.81 m/s, 274° | - | - |
| 1777987635 | 11.11° C | 35% | 1004.6 hPa | 0 mm | 6.26 m/s, 284° | - | - |
| 1777986435 | 10° C | 40% | 1004.6 hPa | 0 mm | 4.92 m/s, 297° | - | - |
| 1777985235 | 11.67° C | 38% | 1004.5 hPa | 0 mm | 7.15 m/s, 278° | - | - |
| 1777984035 | 11.11° C | 40% | 1004.1 hPa | 0 mm | 6.71 m/s, 279° | - | - |
| 1777982835 | 9.44° C | 45% | 1004.1 hPa | 0 mm | 7.15 m/s, 309° | - | - |
| 1777981635 | 11.67° C | 40% | 1003.7 hPa | 0 mm | 6.71 m/s, 277° | - | - |
* Rain latest hour (hover to see other rain measurements)
** Current wind speed in m/s (hover to see current wind gust speed)